Time;durP1;ratioP1;P1;durP2;ratioP2;P2;SDS_P1;SDS_P2;PMS_P1;PMS_P2;Temp;Humidity;BMP_temperature;BMP_pressure;BME280_temperature;BME280_humidity;BME280_pressure;Samples;Min_cycle;Max_cycle;Signal;HPM_P1;HPM_P2
2021/09/29 00:02:13;;;;;;;10.27;4.90;;;;;;;16.58;77.44;100458.22;5048279;28;20048;-68
2021/09/29 00:04:39;;;;;;;5.32;3.33;;;;;;;16.52;77.88;100458.94;5048086;28;20044;-68
2021/09/29 00:07:04;;;;;;;9.30;4.28;;;;;;;16.42;77.28;100461.06;5051300;28;20029;-68
2021/09/29 00:09:30;;;;;;;7.70;3.60;;;;;;;16.57;77.10;100461.91;5051946;28;20342;-68
2021/09/29 00:11:55;;;;;;;8.25;3.92;;;;;;;16.64;76.10;100467.34;5050070;28;20033;-68
2021/09/29 00:14:21;;;;;;;11.68;4.45;;;;;;;16.66;75.84;100466.22;5051594;28;20250;-68
2021/09/29 00:16:46;;;;;;;7.57;4.47;;;;;;;16.73;75.94;100474.31;5048774;28;20100;-68
2021/09/29 00:19:12;;;;;;;8.30;4.75;;;;;;;16.80;75.94;100469.91;5047561;28;20041;-68
2021/09/29 00:21:37;;;;;;;7.18;4.18;;;;;;;16.58;75.05;100471.59;5040716;28;20033;-68
2021/09/29 00:24:03;;;;;;;9.88;4.85;;;;;;;16.68;75.65;100472.19;5045155;28;20024;-68
2021/09/29 00:26:29;;;;;;;8.43;4.35;;;;;;;16.67;76.37;100467.88;5046190;28;20037;-68
2021/09/29 00:28:54;;;;;;;9.07;4.65;;;;;;;16.75;76.52;100462.44;5040670;28;20057;-68
2021/09/29 00:31:27;;;;;;;8.50;4.50;;;;;;;16.74;76.46;100458.09;5042302;28;20235;-68
2021/09/29 00:33:59;;;;;;;8.48;4.13;;;;;;;16.60;76.94;100461.53;5050070;28;20025;-68
2021/09/29 00:36:26;;;;;;;5.47;3.90;;;;;;;16.76;76.75;100453.38;5049947;28;20035;-68
2021/09/29 00:38:51;;;;;;;7.68;4.25;;;;;;;16.86;75.45;100456.63;5044940;28;20067;-68
2021/09/29 00:41:17;;;;;;;8.48;4.10;;;;;;;16.89;75.74;100458.09;5052737;28;20024;-68
2021/09/29 00:43:42;;;;;;;8.85;3.95;;;;;;;17.06;75.48;100456.88;5046415;28;20021;-68
2021/09/29 00:46:08;;;;;;;6.57;4.00;;;;;;;17.02;74.08;100465.47;5046850;28;20212;-68
2021/09/29 00:48:33;;;;;;;9.13;4.28;;;;;;;17.31;74.62;100468.09;5052762;28;20330;-68
2021/09/29 00:50:59;;;;;;;5.70;4.25;;;;;;;17.41;74.68;100468.59;5050665;28;20074;-68
2021/09/29 00:53:25;;;;;;;6.32;3.80;;;;;;;17.64;73.74;100467.63;5046320;28;20200;-69
2021/09/29 00:55:51;;;;;;;8.25;4.05;;;;;;;17.76;72.56;100471.50;5050927;28;20074;-68
2021/09/29 00:58:16;;;;;;;9.15;4.43;;;;;;;17.72;73.95;100460.34;5060076;28;20056;-68
2021/09/29 01:00:42;;;;;;;11.00;4.63;;;;;;;18.04;72.25;100464.34;5057131;28;20032;-68
2021/09/29 01:03:09;;;;;;;8.07;4.10;;;;;;;17.84;73.63;100463.34;5046324;28;20072;-68
2021/09/29 01:05:35;;;;;;;5.90;4.40;;;;;;;17.92;72.13;100459.72;5046625;28;20033;-68
2021/09/29 01:08:11;;;;;;;11.57;4.28;;;;;;;17.99;70.36;100464.09;5050536;28;20028;-68
2021/09/29 01:10:46;;;;;;;9.77;4.18;;;;;;;18.02;71.65;100453.00;5049922;28;20025;-68
2021/09/29 01:13:19;;;;;;;6.18;4.22;;;;;;;18.15;71.42;100465.69;5055185;28;20514;-68
2021/09/29 01:15:49;;;;;;;7.70;4.68;;;;;;;18.05;71.82;100470.53;5050152;28;20044;-68
2021/09/29 01:18:25;;;;;;;10.80;4.70;;;;;;;18.05;72.07;100467.88;5049518;28;20071;-68
2021/09/29 01:21:02;;;;;;;7.78;4.47;;;;;;;18.16;72.17;100472.69;5054314;28;20342;-68
2021/09/29 01:23:35;;;;;;;7.43;4.63;;;;;;;18.25;71.84;100478.75;5046261;28;20437;-68
2021/09/29 01:26:38;;;;;;;7.15;4.30;;;;;;;18.38;71.08;100465.44;5041716;28;20319;-68
2021/09/29 01:29:10;;;;;;;7.97;4.38;;;;;;;18.24;71.72;100471.72;4982366;28;20035;-68
2021/09/29 01:31:37;;;;;;;7.80;4.43;;;;;;;18.19;71.84;100469.63;5046890;28;20108;-68
2021/09/29 01:34:05;;;;;;;8.85;5.07;;;;;;;18.18;72.49;100479.53;5061897;28;20059;-68
2021/09/29 01:36:31;;;;;;;10.65;4.45;;;;;;;18.21;70.77;100478.31;5061068;28;20033;-68
2021/09/29 01:38:58;;;;;;;11.15;5.22;;;;;;;18.14;71.33;100480.94;5055299;28;20222;-68
2021/09/29 01:41:27;;;;;;;6.45;4.15;;;;;;;18.21;70.40;100485.53;5054348;28;20080;-68
2021/09/29 01:43:53;;;;;;;7.57;3.95;;;;;;;18.28;69.32;100486.41;5063079;28;20095;-68
2021/09/29 01:46:20;;;;;;;6.70;4.22;;;;;;;18.33;68.46;100482.13;5060645;28;20056;-68
2021/09/29 01:49:23;;;;;;;6.95;4.72;;;;;;;18.30;67.88;100489.72;5046498;28;20093;-68
2021/09/29 01:51:51;;;;;;;10.60;4.85;;;;;;;18.18;67.77;100484.88;4978412;28;20045;-68
2021/09/29 01:54:19;;;;;;;7.28;3.95;;;;;;;17.94;66.78;100482.63;5036231;28;20049;-68
2021/09/29 01:56:45;;;;;;;6.30;4.30;;;;;;;17.54;68.39;100482.16;5051790;28;20067;-68
2021/09/29 01:59:11;;;;;;;9.85;4.97;;;;;;;17.48;69.35;100482.06;5055034;28;20246;-68
2021/09/29 02:01:38;;;;;;;6.53;4.63;;;;;;;17.30;70.14;100485.16;5059250;28;20029;-68
2021/09/29 02:04:04;;;;;;;10.38;4.43;;;;;;;17.05;70.60;100489.16;5056280;28;20315;-70
2021/09/29 02:06:30;;;;;;;9.48;5.70;;;;;;;16.72;71.45;100489.53;5054132;28;20033;-68
2021/09/29 02:08:55;;;;;;;7.50;5.68;;;;;;;16.40;73.30;100481.78;5052295;28;20044;-70
2021/09/29 02:11:21;;;;;;;9.73;6.15;;;;;;;16.27;74.98;100477.06;5042917;28;20064;-70
2021/09/29 02:13:46;;;;;;;10.15;6.88;;;;;;;16.15;74.98;100487.34;5024652;28;20030;-70
2021/09/29 02:16:12;;;;;;;11.23;6.35;;;;;;;16.17;75.83;100485.34;5044281;28;20045;-68
2021/09/29 02:18:37;;;;;;;9.95;6.32;;;;;;;16.18;75.56;100489.66;5044690;28;20037;-69
2021/09/29 02:21:03;;;;;;;11.38;6.50;;;;;;;16.01;75.91;100498.81;5042561;28;20266;-71
2021/09/29 02:23:28;;;;;;;8.18;6.38;;;;;;;15.87;77.45;100491.59;5043204;28;20337;-70
2021/09/29 02:25:54;;;;;;;10.88;6.60;;;;;;;15.82;78.13;100496.63;5061941;28;20025;-70
2021/09/29 02:28:19;;;;;;;10.15;6.55;;;;;;;15.72;78.59;100496.03;5062435;28;20032;-70
2021/09/29 02:30:45;;;;;;;9.13;6.03;;;;;;;15.62;78.68;100501.59;5051301;28;20025;-70
2021/09/29 02:33:11;;;;;;;11.38;6.78;;;;;;;15.50;79.61;100498.44;5048404;28;20231;-70
2021/09/29 02:35:36;;;;;;;9.77;5.80;;;;;;;15.58;79.01;100503.75;5047469;28;20058;-71
2021/09/29 02:38:02;;;;;;;12.50;6.93;;;;;;;15.54;80.02;100499.75;5052029;28;20354;-70
2021/09/29 02:40:27;;;;;;;11.48;6.72;;;;;;;15.77;78.90;100505.19;5051929;28;20092;-70
2021/09/29 02:42:52;;;;;;;11.70;6.80;;;;;;;15.69;79.50;100494.56;5056552;28;20025;-70
2021/09/29 02:45:18;;;;;;;10.25;6.18;;;;;;;15.96;77.79;100502.03;5047384;28;20025;-70
2021/09/29 02:47:43;;;;;;;9.20;6.35;;;;;;;15.98;78.52;100507.19;5048777;28;20041;-70
2021/09/29 02:50:09;;;;;;;10.57;7.25;;;;;;;16.08;78.74;100512.31;5047922;28;20060;-70
2021/09/29 02:52:35;;;;;;;10.80;6.90;;;;;;;16.23;77.70;100508.66;5048934;28;20029;-70
2021/09/29 02:55:01;;;;;;;11.82;6.18;;;;;;;16.34;76.50;100504.72;5059288;28;20037;-70
2021/09/29 02:57:26;;;;;;;7.97;6.25;;;;;;;16.15;77.09;100513.25;5061889;28;20354;-70
2021/09/29 02:59:53;;;;;;;9.43;5.43;;;;;;;16.18;76.31;100516.38;5055124;28;20037;-70
2021/09/29 03:02:20;;;;;;;10.07;5.45;;;;;;;16.30;75.72;100519.47;5054607;28;20219;-70
2021/09/29 03:04:45;;;;;;;11.45;6.68;;;;;;;16.50;76.46;100512.59;5049623;28;20027;-70
2021/09/29 03:07:10;;;;;;;10.05;6.80;;;;;;;16.68;76.13;100504.28;5053237;28;20053;-70
2021/09/29 03:09:36;;;;;;;11.07;5.75;;;;;;;16.82;75.09;100500.78;5048418;28;20237;-71
2021/09/29 03:12:02;;;;;;;10.98;5.85;;;;;;;16.69;75.09;100502.44;5050778;28;20248;-70
2021/09/29 03:14:27;;;;;;;9.38;6.05;;;;;;;16.68;75.40;100501.63;5053361;28;20036;-68
2021/09/29 03:16:53;;;;;;;8.40;6.20;;;;;;;16.71;75.46;100500.41;5053166;28;20024;-70
2021/09/29 03:19:19;;;;;;;8.70;6.40;;;;;;;16.78;75.13;100504.84;5043063;28;20328;-69
2021/09/29 03:21:44;;;;;;;9.73;5.75;;;;;;;16.70;75.59;100506.78;5052949;28;20013;-70
2021/09/29 03:24:11;;;;;;;11.30;5.97;;;;;;;16.82;74.77;100508.00;5048845;28;20029;-70
2021/09/29 03:26:36;;;;;;;9.43;6.45;;;;;;;16.99;74.88;100511.31;5052387;28;20033;-68
2021/09/29 03:29:02;;;;;;;7.78;6.38;;;;;;;17.08;73.88;100512.88;5055975;28;20083;-68
2021/09/29 03:31:27;;;;;;;8.65;6.38;;;;;;;17.06;73.48;100517.59;5058898;28;20052;-68
2021/09/29 03:33:54;;;;;;;12.73;7.22;;;;;;;17.09;74.05;100509.19;5034678;28;20486;-70
2021/09/29 03:36:20;;;;;;;10.52;6.88;;;;;;;17.07;74.42;100503.19;5059780;28;20040;-68
2021/09/29 03:38:45;;;;;;;8.75;5.85;;;;;;;16.93;73.19;100507.53;5061061;28;20037;-68
2021/09/29 03:41:10;;;;;;;12.88;7.13;;;;;;;16.60;75.47;100496.28;5042384;28;20025;-70
2021/09/29 03:43:36;;;;;;;11.40;7.28;;;;;;;16.48;75.21;100506.59;5042017;28;20103;-70
2021/09/29 03:46:01;;;;;;;10.05;6.43;;;;;;;16.57;74.93;100510.03;5046063;28;20029;-68
2021/09/29 03:48:27;;;;;;;13.05;6.07;;;;;;;16.35;76.50;100493.03;5052555;28;20044;-68
2021/09/29 03:50:52;;;;;;;8.43;6.20;;;;;;;16.30;76.77;100508.78;5055900;28;20206;-68
2021/09/29 03:53:18;;;;;;;7.97;5.82;;;;;;;16.18;77.89;100507.53;5046536;28;20211;-68
2021/09/29 03:55:43;;;;;;;11.70;5.97;;;;;;;16.24;77.44;100504.16;5047985;28;20028;-70
2021/09/29 03:58:09;;;;;;;7.25;5.20;;;;;;;16.16;76.99;100507.72;5050665;28;20096;-70
2021/09/29 04:00:34;;;;;;;7.25;4.88;;;;;;;16.35;76.29;100517.09;5047357;28;20037;-70
2021/09/29 04:03:00;;;;;;;10.38;5.07;;;;;;;16.38;76.63;100518.56;5050392;28;20207;-70
2021/09/29 04:05:25;;;;;;;8.98;5.05;;;;;;;16.36;76.17;100520.59;5046452;28;20081;-70
2021/09/29 04:07:51;;;;;;;8.35;5.72;;;;;;;16.36;75.66;100518.75;5050689;28;20032;-68
2021/09/29 04:10:16;;;;;;;10.98;5.15;;;;;;;16.54;75.38;100510.38;5040653;28;20313;-68
2021/09/29 04:12:43;;;;;;;7.50;5.15;;;;;;;16.68;75.27;100520.34;5040144;28;20038;-68
2021/09/29 04:15:10;;;;;;;7.75;5.25;;;;;;;16.69;74.99;100518.50;5049972;28;20094;-68
2021/09/29 04:17:37;;;;;;;9.30;5.30;;;;;;;16.71;74.47;100519.97;5048472;28;20033;-68
2021/09/29 04:20:04;;;;;;;7.75;5.40;;;;;;;16.74;75.00;100516.94;5049334;28;20051;-70
2021/09/29 04:22:29;;;;;;;7.88;4.75;;;;;;;16.54;75.63;100532.59;5050864;28;20037;-70
2021/09/29 04:24:55;;;;;;;8.65;4.97;;;;;;;16.77;74.30;100519.25;5050387;28;20028;-68
2021/09/29 04:27:21;;;;;;;10.27;5.70;;;;;;;16.86;74.24;100530.69;5051208;28;20033;-70
2021/09/29 04:29:46;;;;;;;9.77;5.78;;;;;;;17.05;73.78;100531.97;5047277;28;20326;-68
2021/09/29 04:32:12;;;;;;;11.40;5.65;;;;;;;17.16;73.24;100542.22;5058444;28;20070;-68
2021/09/29 04:34:37;;;;;;;7.88;5.60;;;;;;;17.31;73.45;100535.00;5046675;28;20052;-68
2021/09/29 04:37:03;;;;;;;14.63;6.22;;;;;;;17.39;73.16;100539.41;5032384;28;20032;-68
2021/09/29 04:39:29;;;;;;;12.52;4.90;;;;;;;17.52;72.98;100539.59;5046516;28;20342;-68
2021/09/29 04:41:54;;;;;;;10.45;6.15;;;;;;;17.47;74.65;100536.63;5059785;28;20261;-68
2021/09/29 04:44:20;;;;;;;11.52;5.65;;;;;;;17.47;74.52;100542.81;5060069;28;20025;-68
2021/09/29 04:46:45;;;;;;;8.18;5.65;;;;;;;17.65;73.23;100547.78;5052656;28;20310;-68
2021/09/29 04:49:10;;;;;;;11.13;5.60;;;;;;;17.72;72.91;100548.75;5053412;28;20029;-68
2021/09/29 04:51:36;;;;;;;7.10;5.70;;;;;;;17.72;72.37;100543.38;5043162;28;20221;-68
2021/09/29 04:54:02;;;;;;;11.88;5.30;;;;;;;17.69;72.26;100551.78;5044822;28;20025;-68
2021/09/29 04:56:27;;;;;;;10.38;5.40;;;;;;;17.71;72.90;100546.25;5057685;28;20025;-68
2021/09/29 04:58:53;;;;;;;6.95;5.00;;;;;;;17.76;72.03;100550.03;5062386;28;20044;-68
2021/09/29 05:01:25;;;;;;;8.20;5.20;;;;;;;17.80;71.51;100551.31;5065390;28;20013;-68
2021/09/29 05:03:52;;;;;;;8.55;4.93;;;;;;;17.82;71.90;100546.59;5065012;28;20060;-68
2021/09/29 05:06:17;;;;;;;8.55;4.90;;;;;;;17.87;70.17;100543.34;5064890;28;20075;-68
2021/09/29 05:08:45;;;;;;;8.13;4.95;;;;;;;17.77;70.47;100540.97;5065252;28;20230;-68
2021/09/29 05:11:20;;;;;;;7.88;4.68;;;;;;;17.70;71.53;100544.59;5064866;28;20078;-68
2021/09/29 05:13:46;;;;;;;;;;;;;;;18.02;69.30;100548.66;5065458;28;20036;-68
2021/09/29 05:16:12;;;;;;;9.48;5.07;;;;;;;17.81;70.32;100544.94;5064806;28;19908;-68
2021/09/29 05:18:38;;;;;;;13.77;5.38;;;;;;;17.78;70.49;100544.47;5064325;28;20064;-68
2021/09/29 05:21:04;;;;;;;7.80;5.07;;;;;;;17.67;70.68;100544.94;5064829;28;20052;-68
2021/09/29 05:23:29;;;;;;;8.05;4.68;;;;;;;17.63;70.88;100543.63;5064802;28;20311;-68
2021/09/29 05:25:55;;;;;;;7.80;4.95;;;;;;;17.63;71.79;100548.97;5064687;28;20053;-68
2021/09/29 05:28:27;;;;;;;8.15;5.45;;;;;;;17.56;71.66;100548.91;5064679;28;20041;-68
2021/09/29 05:30:53;;;;;;;8.70;6.03;;;;;;;17.51;71.52;100557.50;5051124;28;20318;-68
2021/09/29 05:33:18;;;;;;;9.50;5.70;;;;;;;17.71;70.59;100562.31;5064337;28;20029;-68
2021/09/29 05:35:44;;;;;;;10.50;5.43;;;;;;;17.70;70.43;100564.16;5064448;28;20070;-68
2021/09/29 05:38:09;;;;;;;9.88;6.10;;;;;;;17.73;70.15;100560.28;5064610;28;20024;-68
2021/09/29 05:40:35;;;;;;;7.78;5.68;;;;;;;17.80;70.11;100570.06;5064311;28;20104;-68
2021/09/29 05:43:00;;;;;;;8.02;5.40;;;;;;;17.82;69.04;100568.03;5062335;28;20051;-68
2021/09/29 05:45:26;;;;;;;10.27;5.78;;;;;;;17.90;69.02;100569.75;5043836;28;20026;-68
2021/09/29 05:47:52;;;;;;;9.05;5.70;;;;;;;17.90;68.99;100571.59;5042719;28;20038;-68
2021/09/29 05:50:17;;;;;;;19.00;5.70;;;;;;;17.95;68.90;100571.88;5050055;28;20052;-68
2021/09/29 05:52:43;;;;;;;8.52;5.65;;;;;;;17.99;68.35;100570.47;5048654;28;20016;-68
2021/09/29 05:55:09;;;;;;;10.68;5.55;;;;;;;17.97;69.20;100581.38;5050121;28;20149;-68
2021/09/29 05:57:34;;;;;;;8.07;4.63;;;;;;;17.99;68.74;100581.19;5053327;28;20033;-68
2021/09/29 05:59:59;;;;;;;5.68;4.53;;;;;;;18.07;68.51;100581.06;5053999;28;20029;-68
2021/09/29 06:02:25;;;;;;;8.27;5.18;;;;;;;18.10;69.33;100586.03;5057573;28;20029;-68
2021/09/29 06:04:51;;;;;;;10.55;5.28;;;;;;;18.02;70.24;100580.81;5049278;28;20354;-68
2021/09/29 06:07:17;;;;;;;9.30;5.28;;;;;;;18.23;69.64;100590.72;5051297;28;20029;-68
2021/09/29 06:09:44;;;;;;;10.60;6.00;;;;;;;18.25;70.07;100588.66;5043576;28;20312;-68
2021/09/29 06:12:11;;;;;;;8.90;5.47;;;;;;;18.18;71.14;100588.59;5043485;28;20067;-68
2021/09/29 06:14:38;;;;;;;8.90;5.40;;;;;;;18.26;69.42;100601.03;5050422;28;20051;-68
2021/09/29 06:18:12;;;;;;;9.50;5.63;;;;;;;18.30;69.59;100596.97;5054818;28;20062;-68
2021/09/29 06:19:59;;;;;;;9.25;6.05;;;;;;;18.40;69.34;100600.16;5039322;28;20059;-68
2021/09/29 06:22:24;;;;;;;10.88;6.00;;;;;;;18.44;68.33;100598.75;5056278;28;20322;-68
2021/09/29 06:24:50;;;;;;;11.40;5.95;;;;;;;18.40;68.66;100592.94;5049189;28;20349;-68
2021/09/29 06:27:15;;;;;;;23.45;9.95;;;;;;;18.35;68.13;100615.97;5047220;28;20262;-68
2021/09/29 06:29:42;;;;;;;21.23;9.85;;;;;;;18.35;68.52;100613.31;5051640;28;20088;-68
2021/09/29 06:32:08;;;;;;;11.68;7.13;;;;;;;18.41;68.09;100608.00;5045258;28;20035;-68
2021/09/29 06:34:33;;;;;;;16.95;8.18;;;;;;;18.45;68.66;100608.44;5049322;28;20303;-68
2021/09/29 06:36:59;;;;;;;13.98;6.90;;;;;;;18.31;69.60;100595.94;5059584;28;20032;-68
2021/09/29 06:39:24;;;;;;;11.38;6.38;;;;;;;18.41;69.72;100612.53;5053241;28;20046;-68
2021/09/29 06:41:50;;;;;;;7.80;6.72;;;;;;;18.34;69.98;100614.31;5043836;28;20052;-68
2021/09/29 06:44:16;;;;;;;20.85;7.45;;;;;;;18.38;69.21;100611.06;5042498;28;20061;-68
2021/09/29 06:46:42;;;;;;;10.50;7.20;;;;;;;18.41;69.84;100618.72;5041684;28;20076;-68
2021/09/29 06:49:07;;;;;;;10.55;7.85;;;;;;;18.36;70.00;100618.47;5050987;28;20219;-69
2021/09/29 06:51:33;;;;;;;12.55;7.10;;;;;;;18.50;68.39;100616.75;5055172;28;20024;-68
2021/09/29 06:53:58;;;;;;;10.35;7.75;;;;;;;18.52;67.48;100626.25;5050392;28;20315;-68
2021/09/29 06:56:24;;;;;;;13.05;7.70;;;;;;;18.53;67.80;100627.09;5047627;28;20029;-68
2021/09/29 06:58:53;;;;;;;15.35;8.60;;;;;;;18.47;68.13;100630.53;5049249;28;20037;-68
2021/09/29 07:01:19;;;;;;;11.65;8.07;;;;;;;18.37;68.73;100627.34;5053491;28;20230;-68
2021/09/29 07:03:45;;;;;;;12.00;7.20;;;;;;;18.32;68.26;100630.59;5061865;28;20047;-68
2021/09/29 07:06:11;;;;;;;14.70;8.32;;;;;;;18.37;67.84;100633.53;5060648;28;20056;-68
2021/09/29 07:08:37;;;;;;;13.90;8.00;;;;;;;18.44;68.34;100633.59;5047260;28;20439;-68
2021/09/29 07:11:03;;;;;;;10.95;6.22;;;;;;;18.33;68.02;100642.97;5049773;28;20055;-68
2021/09/29 07:13:29;;;;;;;9.35;5.50;;;;;;;18.10;67.69;100645.00;5054012;28;20330;-68
2021/09/29 07:15:54;;;;;;;8.73;5.40;;;;;;;17.97;69.07;100639.50;5054906;28;20194;-68
2021/09/29 07:18:20;;;;;;;9.15;5.85;;;;;;;17.52;71.04;100639.50;5053205;28;20017;-68
2021/09/29 07:20:46;;;;;;;8.50;6.32;;;;;;;17.55;72.41;100646.31;5049347;28;20187;-68
2021/09/29 07:23:11;;;;;;;7.72;6.00;;;;;;;17.47;73.41;100644.56;5049655;28;20021;-68
2021/09/29 07:25:38;;;;;;;14.77;8.13;;;;;;;17.45;71.83;100637.75;5051956;28;20034;-68
2021/09/29 07:28:04;;;;;;;16.38;7.70;;;;;;;17.13;71.62;100649.63;5058390;28;20096;-68
2021/09/29 07:30:30;;;;;;;12.43;7.57;;;;;;;16.89;73.35;100651.53;5043436;28;20204;-70
2021/09/29 07:32:58;;;;;;;15.32;8.65;;;;;;;16.79;72.84;100647.44;5060570;28;20061;-68
2021/09/29 07:35:23;;;;;;;14.35;8.68;;;;;;;16.76;74.06;100647.78;5062393;28;20318;-68
2021/09/29 07:37:50;;;;;;;14.40;8.80;;;;;;;16.79;74.32;100650.09;5048106;28;20034;-68
2021/09/29 07:40:16;;;;;;;14.38;7.32;;;;;;;16.68;71.21;100653.22;5051526;28;20052;-71
2021/09/29 07:42:41;;;;;;;15.07;9.32;;;;;;;16.57;74.50;100655.22;5058105;28;20040;-69
2021/09/29 07:45:08;;;;;;;17.45;10.18;;;;;;;16.47;75.09;100648.47;5052251;28;20043;-70
2021/09/29 07:47:34;;;;;;;21.73;10.13;;;;;;;16.55;75.83;100662.59;5049470;28;20040;-70
2021/09/29 07:50:00;;;;;;;20.65;9.95;;;;;;;16.57;76.45;100659.75;5061094;28;20040;-69
2021/09/29 07:52:25;;;;;;;19.85;7.55;;;;;;;16.50;76.10;100662.31;5060689;28;20410;-68
2021/09/29 07:54:52;;;;;;;19.30;7.80;;;;;;;16.67;75.03;100659.56;5051779;28;20034;-68
2021/09/29 07:57:17;;;;;;;12.45;8.25;;;;;;;16.69;74.20;100660.22;5043566;28;20045;-68
2021/09/29 07:59:43;;;;;;;13.25;7.70;;;;;;;16.76;74.19;100650.47;5052259;28;20200;-68
2021/09/29 08:02:08;;;;;;;13.90;7.57;;;;;;;16.63;74.41;100666.22;5061996;28;20258;-68
2021/09/29 08:04:34;;;;;;;15.48;7.38;;;;;;;16.70;73.82;100651.19;5061224;28;20032;-68
2021/09/29 08:07:00;;;;;;;13.32;8.13;;;;;;;16.90;74.01;100663.88;5075749;28;20376;-68
2021/09/29 08:09:27;;;;;;;13.75;7.65;;;;;;;16.78;75.87;100659.97;5061612;28;20033;-68
2021/09/29 08:11:53;;;;;;;15.15;7.30;;;;;;;16.80;73.75;100657.94;5065341;28;20067;-69
2021/09/29 08:14:18;;;;;;;14.88;7.57;;;;;;;16.65;75.11;100662.44;5061482;28;20032;-68
2021/09/29 08:16:45;;;;;;;16.10;7.07;;;;;;;16.52;76.15;100665.63;5061529;28;20041;-68
2021/09/29 08:19:11;;;;;;;14.55;7.70;;;;;;;16.54;77.30;100666.28;5061184;28;20330;-70
2021/09/29 08:21:37;;;;;;;15.68;7.45;;;;;;;16.54;77.11;100674.31;5061608;28;20035;-68
2021/09/29 08:24:39;;;;;;;9.70;7.60;;;;;;;16.44;77.50;100675.56;5061771;28;20045;-70
2021/09/29 08:34:20;;;;;;;16.13;7.38;;;;;;;16.56;76.26;100674.97;5063626;28;20074;-68
2021/09/29 08:36:54;;;;;;;9.77;7.20;;;;;;;16.63;76.37;100667.06;5066058;28;20028;-71
2021/09/29 08:49:20;;;;;;;14.93;7.07;;;;;;;17.06;73.83;100676.28;5065807;28;20018;-70
2021/09/29 08:57:26;;;;;;;10.95;6.53;;;;;;;16.86;74.22;100664.44;5065469;28;20314;-70
2021/09/29 09:16:32;;;;;;;11.18;6.85;;;;;;;16.90;73.40;100685.28;5046495;28;20097;-70
2021/09/29 09:19:04;;;;;;;9.75;5.57;;;;;;;16.74;73.63;100688.09;5055799;28;20578;-70
2021/09/29 09:21:31;;;;;;;6.45;5.47;;;;;;;16.74;72.95;100685.41;5063697;28;20021;-70
2021/09/29 09:23:59;;;;;;;13.40;5.82;;;;;;;16.73;72.82;100694.44;5060169;28;20037;-70
2021/09/29 09:26:28;;;;;;;10.63;5.38;;;;;;;16.97;71.60;100697.94;5052779;28;20250;-70
2021/09/29 09:29:08;;;;;;;7.30;5.22;;;;;;;16.88;72.31;100692.66;5060799;28;20033;-70
2021/09/29 09:31:34;;;;;;;13.38;5.93;;;;;;;16.92;73.01;100698.47;5057514;28;20032;-70
2021/09/29 09:34:03;;;;;;;14.23;5.45;;;;;;;16.81;73.02;100698.91;5040550;28;20216;-70
2021/09/29 09:36:31;;;;;;;13.65;5.30;;;;;;;17.01;71.23;100701.91;5073067;28;20038;-70
2021/09/29 09:38:59;;;;;;;6.82;5.47;;;;;;;16.86;72.83;100702.72;5064537;28;20106;-70
2021/09/29 09:41:25;;;;;;;6.82;5.55;;;;;;;16.95;71.51;100702.63;5078795;28;20060;-70
2021/09/29 09:43:56;;;;;;;8.48;5.88;;;;;;;16.64;73.77;100708.81;5063586;28;20036;-70
2021/09/29 09:46:23;;;;;;;9.75;6.15;;;;;;;16.83;74.34;100704.91;5064098;28;20093;-70
2021/09/29 09:49:06;;;;;;;11.38;7.22;;;;;;;16.91;73.26;100705.66;5063995;28;20110;-70
2021/09/29 09:51:33;;;;;;;15.60;7.10;;;;;;;16.80;72.09;100707.94;5077963;28;20031;-70
2021/09/29 09:54:00;;;;;;;10.25;6.68;;;;;;;16.76;71.70;100701.28;5064422;28;20037;-70
2021/09/29 09:56:31;;;;;;;10.27;7.30;;;;;;;16.78;71.44;100700.09;5075322;28;20024;-70
2021/09/29 09:58:57;;;;;;;6.78;5.03;;;;;;;16.51;72.29;100708.59;5072444;28;20200;-70
2021/09/29 10:01:31;;;;;;;6.05;4.88;;;;;;;16.54;71.81;100698.38;5081953;28;20276;-70
2021/09/29 10:04:08;;;;;;;11.10;6.50;;;;;;;16.69;72.05;100703.84;5080942;28;20372;-70
2021/09/29 10:06:33;;;;;;;13.55;5.55;;;;;;;16.67;71.49;100705.03;5080946;28;20032;-70
2021/09/29 10:09:08;;;;;;;10.77;6.28;;;;;;;16.66;71.29;100703.38;5070951;28;20029;-70
2021/09/29 10:11:49;;;;;;;11.07;6.38;;;;;;;16.63;70.76;100700.97;5078586;28;20016;-70
2021/09/29 10:26:21;;;;;;;10.98;7.40;;;;;;;16.77;72.40;100687.72;5063632;28;20372;-70
2021/09/29 10:28:47;;;;;;;12.68;7.07;;;;;;;17.19;71.90;100692.53;5054104;28;20043;-70
2021/09/29 10:34:13;;;;;;;14.65;6.95;;;;;;;17.17;74.82;100691.91;5063820;28;20311;-70
2021/09/29 10:37:11;;;;;;;10.30;6.90;;;;;;;17.11;74.48;100687.28;5063319;28;20032;-70
2021/09/29 10:42:51;;;;;;;13.25;7.60;;;;;;;17.12;73.02;100680.91;5063494;28;20107;-70
2021/09/29 11:29:20;;;;;;;13.40;8.35;;;;;;;18.02;67.26;100645.13;5062481;28;20197;-70
2021/09/29 11:31:50;;;;;;;10.75;8.02;;;;;;;17.86;67.50;100644.31;5062330;28;20029;-70
2021/09/29 11:34:25;;;;;;;13.82;8.05;;;;;;;17.91;66.17;100634.88;5062864;28;20044;-70
2021/09/29 11:39:59;;;;;;;12.35;8.00;;;;;;;18.18;65.76;100640.34;5062475;28;20035;-70
2021/09/29 12:10:06;;;;;;;10.52;5.72;;;;;;;18.60;64.71;100635.19;5049482;28;20033;-70
2021/09/29 12:12:36;;;;;;;9.23;5.53;;;;;;;18.57;63.63;100644.47;5038143;28;20040;-70
2021/09/29 12:15:05;;;;;;;9.65;5.85;;;;;;;18.48;63.72;100633.03;5054778;28;20012;-70
2021/09/29 12:17:35;;;;;;;12.45;5.40;;;;;;;18.68;63.18;100638.59;5047551;28;20348;-70
2021/09/29 12:20:16;;;;;;;9.45;5.63;;;;;;;18.76;62.68;100635.81;5052913;28;20321;-70
2021/09/29 12:22:56;;;;;;;14.80;6.28;;;;;;;18.64;62.25;100631.97;5041415;28;20045;-70
2021/09/29 12:25:47;;;;;;;12.07;5.55;;;;;;;18.75;63.49;100639.53;5049091;28;20032;-70
2021/09/29 12:31:29;;;;;;;13.23;5.43;;;;;;;18.07;65.62;100629.31;5055204;28;20016;-70
2021/09/29 12:36:31;;;;;;;14.00;5.50;;;;;;;18.45;63.78;100621.84;5046933;28;20025;-70
2021/09/29 12:38:57;;;;;;;11.13;5.22;;;;;;;18.68;63.66;100627.88;5054446;28;20330;-70
2021/09/29 12:41:26;;;;;;;13.05;6.75;;;;;;;18.58;64.59;100621.97;5041744;28;20264;-70
2021/09/29 12:44:13;;;;;;;10.38;6.03;;;;;;;18.78;64.76;100625.72;5040835;28;20028;-70
2021/09/29 12:46:40;;;;;;;12.00;7.07;;;;;;;18.64;62.09;100618.56;5050227;28;20043;-70
2021/09/29 12:49:15;;;;;;;11.27;6.38;;;;;;;18.73;62.82;100614.75;5046026;28;20546;-70
2021/09/29 12:51:46;;;;;;;11.18;6.50;;;;;;;18.72;63.98;100615.72;5040272;28;20019;-71
2021/09/29 12:54:17;;;;;;;9.18;5.32;;;;;;;19.01;62.30;100617.44;5046099;28;20026;-70
2021/09/29 12:56:43;;;;;;;12.35;5.22;;;;;;;19.33;61.40;100628.59;5055669;28;20036;-70
2021/09/29 12:59:08;;;;;;;8.65;5.75;;;;;;;19.22;60.87;100615.72;5053547;28;20397;-70
2021/09/29 13:01:34;;;;;;;9.23;5.72;;;;;;;19.12;61.55;100621.44;5060043;28;20211;-70
2021/09/29 13:03:59;;;;;;;9.43;6.10;;;;;;;19.27;60.27;100624.00;5061470;28;20024;-70
2021/09/29 13:06:24;;;;;;;10.32;6.10;;;;;;;19.02;61.23;100616.41;5061043;28;20021;-70
2021/09/29 13:08:50;;;;;;;7.97;6.32;;;;;;;18.81;61.46;100621.81;5061533;28;20090;-70
2021/09/29 13:11:15;;;;;;;7.70;5.95;;;;;;;18.94;60.72;100621.09;5061288;28;20253;-70
2021/09/29 13:13:41;;;;;;;10.27;5.60;;;;;;;19.01;60.94;100625.47;5060964;28;20063;-70
2021/09/29 13:16:07;;;;;;;14.23;6.47;;;;;;;19.05;60.19;100615.19;5060815;28;20295;-70
2021/09/29 13:18:55;;;;;;;9.57;6.70;;;;;;;19.22;59.30;100615.72;5061138;28;20029;-70
2021/09/29 13:23:56;;;;;;;13.10;6.53;;;;;;;19.42;58.75;100617.47;5064856;28;20025;-70
2021/09/29 13:37:18;;;;;;;10.77;5.50;;;;;;;19.05;60.52;100617.88;5064680;28;20398;-70
2021/09/29 13:39:44;;;;;;;9.73;5.40;;;;;;;19.34;60.47;100611.44;5064647;28;20100;-70
2021/09/29 13:42:10;;;;;;;13.15;4.88;;;;;;;19.46;59.72;100609.84;5064153;28;20100;-70
2021/09/29 13:44:36;;;;;;;12.00;5.50;;;;;;;19.63;58.97;100610.38;5064184;28;20043;-70
2021/09/29 13:47:02;;;;;;;12.88;5.15;;;;;;;19.82;57.82;100603.47;5057313;28;20331;-70
2021/09/29 13:49:28;;;;;;;12.98;5.40;;;;;;;19.68;58.25;100608.75;5047953;28;20037;-70
2021/09/29 13:51:56;;;;;;;9.73;5.57;;;;;;;19.59;59.17;100607.25;5043033;28;20036;-70
2021/09/29 13:54:23;;;;;;;12.07;4.95;;;;;;;19.59;58.58;100612.63;5048230;28;20028;-70
2021/09/29 14:29:21;;;;;;;10.20;5.57;;;;;;;18.85;61.90;100620.41;5033836;28;20126;-70